createdAt,value
2022-12-16T00:01:34.699Z,60.80
2022-12-16T00:04:01.621Z,54.00
2022-12-16T00:06:32.361Z,56.13
2022-12-16T00:09:02.265Z,56.60
2022-12-16T00:11:32.065Z,59.97
2022-12-16T00:13:58.901Z,60.17
2022-12-16T00:16:25.903Z,62.90
2022-12-16T00:18:52.838Z,59.33
2022-12-16T00:21:28.676Z,61.67
2022-12-16T00:23:57.084Z,64.50
2022-12-16T00:26:24.621Z,63.73
2022-12-16T00:28:51.625Z,55.77
2022-12-16T00:31:19.474Z,57.03
2022-12-16T00:33:46.417Z,52.90
2022-12-16T00:36:13.402Z,55.97
2022-12-16T00:38:40.347Z,56.83
2022-12-16T00:41:08.200Z,56.83
2022-12-16T00:43:35.472Z,67.67
2022-12-16T00:46:02.561Z,61.20
2022-12-16T00:48:29.660Z,63.57
2022-12-16T00:50:56.510Z,56.23
2022-12-16T00:53:25.042Z,60.07
2022-12-16T00:56:01.186Z,59.40
2022-12-16T00:58:28.007Z,60.30
2022-12-16T01:00:55.045Z,61.90
2022-12-16T01:03:22.334Z,56.57
2022-12-16T01:05:49.777Z,55.03
2022-12-16T01:08:16.725Z,59.27
2022-12-16T01:10:49.775Z,60.87
2022-12-16T01:13:17.470Z,57.80
2022-12-16T01:15:44.369Z,54.63
2022-12-16T01:18:11.187Z,53.57
2022-12-16T01:20:38.808Z,54.77
2022-12-16T01:23:05.724Z,56.73
2022-12-16T01:25:32.611Z,54.43
2022-12-16T01:27:59.502Z,54.57
2022-12-16T01:30:26.809Z,51.00
2022-12-16T01:32:53.684Z,59.73
2022-12-16T01:35:51.591Z,57.20
2022-12-16T01:38:07.764Z,56.33
2022-12-16T01:40:35.171Z,57.83
2022-12-16T01:43:02.133Z,58.40
2022-12-16T01:45:34.761Z,63.53
2022-12-16T01:48:16.003Z,57.77
2022-12-16T01:50:43.128Z,57.13
2022-12-16T01:53:10.036Z,63.13
2022-12-16T01:55:46.081Z,56.17
2022-12-16T01:58:20.878Z,62.67
2022-12-16T02:00:48.118Z,57.07
2022-12-16T02:03:16.220Z,49.63
2022-12-16T02:05:44.905Z,46.37
2022-12-16T02:08:14.920Z,58.17
2022-12-16T02:10:44.921Z,67.97
2022-12-16T02:13:30.747Z,61.03
2022-12-16T02:16:18.811Z,62.07
2022-12-16T02:19:33.110Z,61.60
2022-12-16T02:22:33.848Z,58.20
2022-12-16T02:25:37.962Z,58.63
2022-12-16T02:28:27.167Z,59.23
2022-12-16T02:31:14.157Z,60.17
2022-12-16T02:33:59.402Z,56.07
2022-12-16T02:36:44.748Z,64.87
2022-12-16T02:39:36.275Z,51.00
2022-12-16T02:42:11.888Z,56.90
2022-12-16T02:44:44.746Z,65.93
2022-12-16T02:47:11.652Z,69.73
2022-12-16T02:49:46.361Z,59.43
2022-12-16T02:52:14.294Z,60.80
2022-12-16T02:54:42.217Z,59.20
2022-12-16T02:57:20.820Z,70.10
2022-12-16T03:00:12.993Z,64.63
2022-12-16T03:03:07.546Z,61.40
2022-12-16T03:05:36.320Z,61.33
2022-12-16T03:08:12.235Z,59.07
2022-12-16T03:10:44.270Z,61.67
2022-12-16T03:13:14.344Z,56.50
2022-12-16T03:15:43.759Z,63.80
2022-12-16T03:18:13.045Z,64.10
2022-12-16T03:20:48.435Z,62.07
2022-12-16T03:23:20.860Z,55.03
2022-12-16T03:25:50.706Z,75.07
2022-12-16T03:28:33.033Z,62.13
2022-12-16T03:31:17.696Z,61.37
2022-12-16T03:33:57.427Z,67.10
2022-12-16T03:36:26.959Z,63.43
2022-12-16T03:38:55.574Z,65.23
2022-12-16T03:41:24.221Z,61.73
2022-12-16T03:43:52.287Z,61.70
2022-12-16T03:46:19.951Z,61.10
2022-12-16T03:48:51.558Z,64.20
2022-12-16T03:51:21.419Z,66.40
2022-12-16T03:53:48.342Z,64.07
2022-12-16T03:56:16.065Z,60.77
2022-12-16T03:58:43.128Z,65.77
2022-12-16T04:01:10.763Z,62.27
2022-12-16T04:03:38.347Z,62.77
2022-12-16T04:06:05.768Z,61.27
2022-12-16T04:08:32.699Z,64.10
2022-12-16T04:11:18.136Z,67.17
2022-12-16T04:14:03.662Z,63.07
2022-12-16T04:16:50.339Z,67.47
2022-12-16T04:19:45.649Z,63.33
2022-12-16T04:22:33.585Z,65.60
2022-12-16T04:25:07.618Z,62.40
2022-12-16T04:27:35.162Z,70.17
2022-12-16T04:30:20.706Z,66.37
2022-12-16T04:33:38.804Z,62.27
2022-12-16T04:36:25.935Z,60.73
2022-12-16T04:39:11.483Z,75.37
2022-12-16T04:41:56.888Z,60.20
2022-12-16T04:44:42.050Z,69.83
2022-12-16T04:47:27.728Z,76.13
2022-12-16T04:50:14.329Z,62.53
2022-12-16T04:52:59.953Z,67.77
2022-12-16T04:55:47.781Z,72.13
2022-12-16T04:58:39.902Z,79.43
2022-12-16T05:01:25.490Z,72.53
2022-12-16T05:04:10.964Z,81.53
2022-12-16T05:06:56.168Z,70.80
2022-12-16T05:09:41.537Z,78.43
2022-12-16T05:12:27.196Z,73.73
2022-12-16T05:15:14.682Z,75.73
2022-12-16T05:18:00.260Z,71.80
2022-12-16T05:20:46.073Z,75.80
2022-12-16T05:23:31.756Z,68.33
2022-12-16T05:26:17.656Z,63.80
2022-12-16T05:32:03.544Z,71.87
2022-12-16T05:34:49.011Z,61.37
2022-12-16T05:37:34.383Z,69.70
2022-12-16T05:40:24.563Z,67.77
2022-12-16T05:43:16.371Z,68.93
2022-12-16T05:46:02.444Z,71.33
2022-12-16T05:48:48.146Z,64.43
2022-12-16T05:51:33.641Z,74.27
2022-12-16T05:54:19.511Z,73.40
2022-12-16T05:57:04.829Z,60.10
2022-12-16T05:59:50.818Z,65.80
2022-12-16T06:02:36.273Z,62.00
2022-12-16T06:05:22.563Z,65.53
2022-12-16T06:08:19.748Z,68.43
2022-12-16T06:11:05.022Z,64.57
2022-12-16T06:13:53.555Z,62.40
2022-12-16T06:16:41.979Z,72.53
2022-12-16T06:19:27.590Z,65.33
2022-12-16T06:22:13.053Z,60.97
2022-12-16T06:24:58.285Z,83.73
2022-12-16T06:27:43.559Z,67.93
2022-12-16T06:30:29.598Z,58.07
2022-12-16T06:33:14.856Z,66.90
2022-12-16T06:36:00.738Z,59.63
2022-12-16T06:38:45.919Z,65.00
2022-12-16T06:41:31.268Z,57.90
2022-12-16T06:44:16.693Z,88.07
2022-12-16T06:47:02.098Z,63.47
2022-12-16T06:49:47.746Z,65.57
2022-12-16T06:52:33.037Z,67.47
2022-12-16T06:55:25.878Z,66.83
2022-12-16T06:58:20.525Z,71.63
2022-12-16T07:01:06.007Z,51.30
2022-12-16T07:03:51.963Z,61.50
2022-12-16T07:06:37.545Z,67.20
2022-12-16T07:09:36.215Z,69.90
2022-12-16T07:12:21.610Z,62.97
2022-12-16T07:15:07.267Z,54.23
2022-12-16T07:17:52.777Z,68.87
2022-12-16T07:20:38.451Z,60.40
2022-12-16T07:23:23.779Z,58.73
2022-12-16T07:26:09.644Z,65.80
2022-12-16T07:28:55.651Z,55.10
2022-12-16T07:31:41.224Z,60.70
2022-12-16T07:34:26.876Z,56.67
2022-12-16T07:37:12.269Z,68.72
2022-12-16T07:39:57.743Z,59.20
2022-12-16T07:42:43.050Z,67.93
2022-12-16T07:45:29.378Z,63.47
2022-12-16T07:48:15.032Z,57.67
2022-12-16T07:51:00.400Z,64.83
2022-12-16T07:53:45.718Z,101.60
2022-12-16T07:56:31.264Z,64.13
2022-12-16T07:59:16.768Z,61.43
2022-12-16T08:02:02.058Z,68.73
2022-12-16T08:04:47.575Z,61.97
2022-12-16T08:07:32.978Z,61.23
2022-12-16T08:10:18.243Z,65.73
2022-12-16T08:13:03.784Z,59.33
2022-12-16T08:15:49.200Z,61.67
2022-12-16T08:18:34.574Z,62.20
2022-12-16T08:21:19.967Z,58.97
2022-12-16T08:24:05.226Z,63.47
2022-12-16T08:26:50.761Z,69.10
2022-12-16T08:29:44.153Z,61.27
2022-12-16T08:32:30.724Z,67.47
2022-12-16T08:35:16.051Z,62.33
2022-12-16T08:38:01.302Z,61.73
2022-12-16T08:40:46.764Z,68.87
2022-12-16T08:43:32.461Z,79.73
2022-12-16T08:46:18.557Z,93.17
2022-12-16T08:49:04.433Z,83.17
2022-12-16T08:51:50.960Z,89.87
2022-12-16T08:54:37.827Z,91.13
2022-12-16T08:57:23.106Z,81.13
2022-12-16T09:00:08.655Z,87.27
2022-12-16T09:02:55.447Z,93.70
2022-12-16T09:05:41.696Z,90.80
2022-12-16T09:08:27.030Z,74.77
2022-12-16T09:11:12.285Z,92.17
2022-12-16T09:13:57.935Z,83.50
2022-12-16T09:16:43.315Z,82.63
2022-12-16T09:19:29.696Z,84.90
2022-12-16T09:22:15.064Z,79.63
2022-12-16T09:25:00.415Z,78.90
2022-12-16T09:27:46.173Z,105.43
2022-12-16T09:30:31.879Z,90.23
2022-12-16T09:33:27.978Z,116.57
2022-12-16T09:36:13.894Z,110.70
2022-12-16T09:38:59.430Z,117.00
2022-12-16T09:41:59.039Z,124.33
2022-12-16T09:45:06.019Z,111.60
2022-12-16T09:48:05.462Z,102.77
2022-12-16T09:50:51.774Z,127.23
2022-12-16T09:53:41.204Z,104.27
2022-12-16T09:56:46.650Z,107.37
2022-12-16T09:59:35.733Z,95.10
2022-12-16T10:02:21.842Z,93.97
2022-12-16T10:05:11.522Z,91.20
2022-12-16T10:08:18.835Z,97.43
2022-12-16T10:11:21.098Z,78.00
2022-12-16T10:14:25.656Z,84.07
2022-12-16T10:17:10.891Z,97.03
2022-12-16T10:20:35.039Z,82.03
2022-12-16T10:23:34.872Z,85.37
2022-12-16T10:27:08.554Z,102.53
2022-12-16T10:30:01.707Z,103.13
2022-12-16T10:32:56.531Z,108.03
2022-12-16T10:35:46.828Z,131.43
2022-12-16T10:38:55.222Z,114.77
2022-12-16T10:42:00.079Z,97.10
2022-12-16T10:44:59.680Z,96.67
2022-12-16T10:47:45.261Z,107.60
2022-12-16T10:50:34.433Z,112.83
2022-12-16T10:53:33.087Z,99.00
2022-12-16T10:56:46.638Z,100.60
2022-12-16T10:59:32.837Z,91.63
2022-12-16T11:02:48.851Z,95.57
2022-12-16T11:05:54.995Z,109.53
2022-12-16T11:08:43.405Z,103.47
2022-12-16T11:11:38.070Z,97.70
2022-12-16T11:15:27.743Z,95.77
2022-12-16T11:17:51.005Z,89.00
2022-12-16T11:20:42.408Z,93.80
2022-12-16T11:23:30.637Z,101.47
2022-12-16T11:26:33.141Z,99.23
2022-12-16T11:29:35.317Z,101.53
2022-12-16T11:32:39.988Z,95.80
2022-12-16T11:35:32.229Z,107.87
2022-12-16T11:38:19.547Z,127.27
2022-12-16T11:41:05.955Z,124.30
2022-12-16T11:43:51.743Z,108.53
2022-12-16T11:46:49.837Z,105.50
2022-12-16T11:49:54.163Z,103.07
2022-12-16T11:52:43.507Z,98.70
2022-12-16T11:56:07.685Z,108.10
2022-12-16T11:59:11.336Z,101.50
2022-12-16T12:02:23.219Z,105.17
2022-12-16T12:05:09.900Z,105.27
2022-12-16T12:08:10.144Z,110.13
2022-12-16T12:11:07.709Z,102.83
2022-12-16T12:14:16.108Z,112.63
2022-12-16T12:17:24.422Z,109.30
2022-12-16T12:20:21.204Z,113.83
2022-12-16T12:23:07.262Z,109.13
2022-12-16T12:26:21.577Z,114.07
2022-12-16T12:29:47.648Z,118.40
2022-12-16T12:32:54.930Z,109.70
2022-12-16T12:36:06.496Z,127.40
2022-12-16T12:39:02.149Z,107.47
2022-12-16T12:42:01.571Z,120.20
2022-12-16T12:44:48.721Z,116.60
2022-12-16T12:47:37.319Z,124.40
2022-12-16T12:50:48.510Z,113.97
2022-12-16T12:53:48.620Z,136.30
2022-12-16T12:56:59.207Z,126.60
2022-12-16T12:59:57.287Z,136.50
2022-12-16T13:02:50.906Z,136.47
2022-12-16T13:05:37.128Z,134.63
2022-12-16T13:08:56.717Z,138.40
2022-12-16T13:11:42.882Z,146.27
2022-12-16T13:14:50.109Z,141.47
2022-12-16T13:17:41.268Z,131.03
2022-12-16T13:20:51.536Z,157.63
2022-12-16T13:23:50.993Z,135.67
2022-12-16T13:26:39.436Z,152.50
2022-12-16T13:29:33.559Z,145.20
2022-12-16T13:32:34.151Z,160.90
2022-12-16T13:35:22.615Z,155.97
2022-12-16T13:38:21.562Z,142.60
2022-12-16T13:41:08.199Z,154.30
2022-12-16T13:44:02.585Z,147.50
2022-12-16T13:50:52.060Z,161.60
2022-12-16T13:53:39.684Z,156.23
2022-12-16T13:56:26.367Z,162.23
2022-12-16T13:59:17.284Z,148.10
2022-12-16T14:02:05.706Z,166.13
2022-12-16T14:04:58.744Z,152.27
2022-12-16T14:07:45.835Z,168.03
2022-12-16T14:10:48.653Z,185.10
2022-12-16T14:13:38.953Z,245.37
2022-12-16T14:16:33.764Z,225.60
2022-12-16T14:19:44.867Z,241.67
2022-12-16T14:22:45.262Z,253.40
2022-12-16T14:25:37.585Z,215.27
2022-12-16T14:28:49.481Z,221.93
2022-12-16T14:31:46.325Z,238.43
2022-12-16T14:34:38.670Z,221.97
2022-12-16T14:37:56.512Z,243.53
2022-12-16T14:40:48.775Z,256.47
2022-12-16T14:43:42.751Z,216.33
2022-12-16T14:46:51.011Z,216.60
2022-12-16T14:49:45.748Z,222.10
2022-12-16T14:52:41.381Z,198.13
2022-12-16T14:55:44.389Z,210.67
2022-12-16T14:58:34.591Z,186.93
2022-12-16T15:01:29.245Z,214.53
2022-12-16T15:04:17.230Z,210.53
2022-12-16T15:07:09.284Z,222.33
2022-12-16T15:10:06.960Z,222.67
2022-12-16T15:13:24.417Z,220.90
2022-12-16T15:16:10.882Z,216.40
2022-12-16T15:19:05.250Z,213.80
2022-12-16T15:21:54.446Z,246.87
2022-12-16T15:24:44.979Z,227.50
2022-12-16T15:27:41.378Z,196.40
2022-12-16T15:30:53.893Z,206.30
2022-12-16T15:33:50.651Z,187.23
2022-12-16T15:36:45.201Z,192.13
2022-12-16T15:39:42.185Z,162.90
2022-12-16T15:42:40.166Z,150.27
2022-12-16T15:45:50.833Z,171.67
2022-12-16T15:48:42.253Z,163.27
2022-12-16T15:51:58.739Z,163.70
2022-12-16T15:54:44.390Z,160.20
2022-12-16T15:57:50.980Z,191.77
2022-12-16T16:00:51.556Z,225.17
2022-12-16T16:03:47.562Z,222.10
2022-12-16T16:06:37.687Z,215.17
2022-12-16T16:09:45.826Z,191.20
2022-12-16T16:12:34.441Z,170.47
2022-12-16T16:15:20.653Z,184.30
2022-12-16T16:18:09.377Z,182.40
2022-12-16T16:20:54.558Z,187.87
2022-12-16T16:23:39.994Z,179.73
2022-12-16T16:26:25.405Z,170.63
2022-12-16T16:29:10.866Z,172.67
2022-12-16T16:32:02.294Z,165.37
2022-12-16T16:34:59.881Z,184.60
2022-12-16T16:37:45.111Z,193.57
2022-12-16T16:40:54.335Z,199.13
2022-12-16T16:43:40.372Z,178.00
2022-12-16T16:46:47.793Z,174.70
2022-12-16T16:49:43.238Z,176.87
2022-12-16T16:52:33.736Z,189.47
2022-12-16T16:55:19.505Z,199.17
2022-12-16T16:58:04.881Z,209.53
2022-12-16T17:00:53.507Z,183.07
2022-12-16T17:03:40.250Z,184.27
2022-12-16T17:06:26.489Z,198.87
2022-12-16T17:09:11.832Z,190.47
2022-12-16T17:11:59.214Z,187.63
2022-12-16T17:14:45.128Z,181.17
2022-12-16T17:17:30.951Z,208.00
2022-12-16T17:20:16.620Z,198.63
2022-12-16T17:23:02.240Z,240.87
2022-12-16T17:25:47.884Z,240.97
2022-12-16T17:28:33.110Z,222.47
2022-12-16T17:31:18.759Z,236.07
2022-12-16T17:34:04.342Z,244.23
2022-12-16T17:36:49.781Z,219.03
2022-12-16T17:39:35.474Z,228.43
2022-12-16T17:42:21.174Z,221.53
2022-12-16T17:45:19.052Z,221.90
2022-12-16T17:51:15.348Z,225.67
2022-12-16T17:54:13.249Z,216.33
2022-12-16T18:03:47.338Z,203.70
2022-12-16T18:07:15.929Z,227.93
2022-12-16T18:10:00.115Z,216.20
2022-12-16T18:12:46.219Z,216.77
2022-12-16T18:15:43.556Z,216.03
2022-12-16T18:21:38.316Z,215.87
2022-12-16T18:24:27.857Z,211.97
2022-12-16T18:27:13.239Z,196.37
2022-12-16T18:29:58.557Z,197.63
2022-12-16T18:32:43.926Z,195.57
2022-12-16T18:35:29.483Z,206.93
2022-12-16T18:38:16.693Z,190.50
2022-12-16T18:41:02.937Z,203.03
2022-12-16T18:43:48.605Z,189.90
2022-12-16T18:46:34.232Z,221.50
2022-12-16T18:49:19.710Z,199.60
2022-12-16T18:52:05.290Z,192.13
2022-12-16T18:54:50.827Z,189.93
2022-12-16T18:57:39.615Z,171.43
2022-12-16T19:00:26.600Z,205.53
2022-12-16T19:03:12.205Z,186.33
2022-12-16T19:05:57.490Z,198.70
2022-12-16T19:08:42.851Z,190.20
2022-12-16T19:11:28.368Z,204.03
2022-12-16T19:14:13.624Z,192.00
2022-12-16T19:16:59.190Z,204.70
2022-12-16T19:19:44.639Z,197.50
2022-12-16T19:22:29.924Z,239.33
2022-12-16T19:25:16.075Z,210.37
2022-12-16T19:28:02.101Z,205.13
2022-12-16T19:30:47.391Z,208.93
2022-12-16T19:33:33.341Z,224.03
2022-12-16T19:36:19.007Z,215.30
2022-12-16T19:39:04.992Z,204.03
2022-12-16T19:41:50.551Z,190.57
2022-12-16T19:44:37.400Z,199.33
2022-12-16T19:47:23.047Z,222.83
2022-12-16T19:50:08.454Z,200.07
2022-12-16T19:52:56.083Z,223.10
2022-12-16T19:55:41.452Z,194.67
2022-12-16T19:58:27.010Z,200.97
2022-12-16T20:01:12.467Z,198.07
2022-12-16T20:03:58.153Z,205.73
2022-12-16T20:06:43.552Z,226.77
2022-12-16T20:09:29.181Z,196.80
2022-12-16T20:12:14.835Z,201.07
2022-12-16T20:15:00.372Z,198.87
2022-12-16T20:17:45.523Z,197.07
2022-12-16T20:20:31.207Z,222.23
2022-12-16T20:23:16.563Z,203.33
2022-12-16T20:26:02.150Z,200.70
2022-12-16T20:28:47.635Z,207.47
2022-12-16T20:31:32.873Z,198.97
2022-12-16T20:34:18.332Z,209.63
2022-12-16T20:37:05.088Z,238.53
2022-12-16T20:39:56.731Z,197.77
2022-12-16T20:42:43.577Z,225.10
2022-12-16T20:45:29.815Z,191.63
2022-12-16T20:48:15.393Z,196.87
2022-12-16T20:51:01.125Z,199.40
2022-12-16T20:53:46.813Z,185.37
2022-12-16T20:56:32.114Z,185.20
2022-12-16T20:59:17.592Z,196.90
2022-12-16T21:05:12.013Z,209.23
2022-12-16T21:07:57.523Z,204.83
2022-12-16T21:10:43.452Z,231.00
2022-12-16T21:13:31.446Z,224.03
2022-12-16T21:16:20.253Z,226.73
2022-12-16T21:19:06.469Z,220.43
2022-12-16T21:21:52.052Z,203.53
2022-12-16T21:24:37.730Z,219.10
2022-12-16T21:27:23.349Z,201.23
2022-12-16T21:30:08.763Z,196.57
2022-12-16T21:32:55.007Z,204.13
2022-12-16T21:35:42.244Z,203.97
2022-12-16T21:38:29.456Z,196.83
2022-12-16T21:41:15.438Z,189.93
2022-12-16T21:44:00.825Z,192.40
2022-12-16T21:46:46.565Z,196.03
2022-12-16T21:49:32.249Z,216.50
2022-12-16T21:52:17.856Z,201.57
2022-12-16T21:55:03.215Z,193.53
2022-12-16T21:57:48.704Z,161.90
2022-12-16T22:00:34.390Z,174.50
2022-12-16T22:03:19.949Z,177.73
2022-12-16T22:06:05.350Z,180.93
2022-12-16T22:08:53.775Z,164.17
2022-12-16T22:11:41.783Z,175.37
2022-12-16T22:14:27.161Z,173.57
2022-12-16T22:17:12.661Z,170.20
2022-12-16T22:19:58.298Z,168.13
2022-12-16T22:22:43.580Z,152.13
2022-12-16T22:25:31.460Z,184.93
2022-12-16T22:28:16.755Z,160.67
2022-12-16T22:31:02.197Z,184.37
2022-12-16T22:33:51.804Z,150.87
2022-12-16T22:36:40.104Z,184.70
2022-12-16T22:39:25.653Z,162.20
2022-12-16T22:42:11.149Z,168.50
2022-12-16T22:44:56.670Z,144.20
2022-12-16T22:47:42.052Z,145.80
2022-12-16T22:50:28.442Z,150.90
2022-12-16T22:53:13.762Z,150.93
2022-12-16T22:56:02.149Z,148.60
2022-12-16T22:58:47.891Z,155.50
2022-12-16T23:01:33.414Z,157.27
2022-12-16T23:04:23.455Z,151.33
2022-12-16T23:07:11.717Z,142.47
2022-12-16T23:09:57.360Z,146.00
2022-12-16T23:12:43.208Z,136.87
2022-12-16T23:15:32.583Z,134.70
2022-12-16T23:18:18.618Z,123.17
2022-12-16T23:21:07.362Z,136.17
2022-12-16T23:23:56.881Z,141.13
2022-12-16T23:26:42.468Z,136.53
2022-12-16T23:29:28.121Z,134.73
2022-12-16T23:32:13.524Z,149.73
2022-12-16T23:34:58.970Z,149.37
2022-12-16T23:37:44.472Z,139.73
2022-12-16T23:40:30.398Z,150.87
2022-12-16T23:43:15.921Z,131.67
2022-12-16T23:46:04.613Z,148.07
2022-12-16T23:48:53.523Z,128.50
2022-12-16T23:51:39.266Z,131.77
2022-12-16T23:54:24.838Z,119.80
2022-12-16T23:57:10.589Z,119.73
2022-12-16T23:59:56.414Z,122.93
